Domov               UVHVVR             MKGP            O straneh              
ZDRAVSTVENO VARSTVO RASTLIN
  MREŽA AGROMET. POSTAJ
 ► PROGNOSTIČNA OBVESTILA
AGROMETEOROLOŠKI PODATKI -
ARSO
OBVLADOVANJE TVEGANJ ZARADI
NEUGODNIH VREMENSKIH RAZMER
  ► NARAVNE NESREČE
  ► SUŠA/MOČA
  ► NAMAKANJE
  ► ŽLED (gozdarstvo)
KARTOGRAFSKI PRIKAZI
SPLETNE POVEZAVE
PROJEKTI IN PUBLIKACIJE

AGROMETEOROLOŠKA MREŽA: VREMENSKE POSTAJE IN FENOLOŠKA OPAZOVANJA

Pregled podatkov za lokacijo Artiče, meteorološka postaja 42800

Pregled senzorjev na lokaciji

ID Ime Zadnja
vrednost
Datum
zadnje
spremembe
Tip
senzorja
2446 Temperatura 2 m ( °C) 17,76 °C 25.6.2017 20:30 50YA
2447 Relativna vlaga 2 m (% RH) 100 % RH 25.6.2017 20:30 50YA
2448 Omočenost lista (U) 10 U 25.6.2017 20:30 A730WET
3778 Padavine 0.2 mm (mm) 0 mm 25.6.2017 20:30 Rain-O-Matic

Pregled podatkov zadnjih 24 ur

Zap.
št.
Datum in čas Artiče
Omočenost
lista
Padavine
0.2
mm
Relativna
vlaga
2
m
Temperatura
2
m
0 25.6.2017 19:30 10 0 100 17,76
1 25.6.2017 19:00 10 0,4 100 17,52
2 25.6.2017 18:30 10 2,8 100 17,33
3 25.6.2017 18:00 8 7,4 81,98 22,42
4 25.6.2017 17:30 0 0 67,93 24,99
5 25.6.2017 17:00 0 0 64,38 25,68
6 25.6.2017 16:30 0 0 59,13 26,96
7 25.6.2017 16:00 0 0 56,19 27,16
8 25.6.2017 15:30 0 0 57,99 26,6
9 25.6.2017 15:00 0 0 58,39 26,53
10 25.6.2017 14:30 0 0 57,7 26,8
11 25.6.2017 14:00 0 0 61,89 24,83
12 25.6.2017 13:30 0 0 57,57 26,83
13 25.6.2017 13:00 0 0 49,77 28,98
14 25.6.2017 12:30 0 0 53,17 28,6
15 25.6.2017 12:00 0 0 55,59 28,69
16 25.6.2017 11:30 0 0 56,78 28,46
17 25.6.2017 11:00 0 0 56,14 27,91
18 25.6.2017 10:30 0 0 58,03 26,97
19 25.6.2017 10:00 0 0 59,86 26,93
20 25.6.2017 09:30 1 0 66,97 25,93
21 25.6.2017 09:00 0 0 71,2 26,02
22 25.6.2017 08:30 0 0 75,88 25,28
23 25.6.2017 08:00 0 0 87,3 23,93
24 25.6.2017 07:30 4 0 93,7 22,91
25 25.6.2017 07:00 10 0 93,83 22,19
26 25.6.2017 06:30 10 0 99,96 21,71
27 25.6.2017 06:00 10 0 100 21,1
28 25.6.2017 05:30 10 0 100 20,58
29 25.6.2017 05:00 10 0 98,94 21,32
30 25.6.2017 04:30 10 0 100 20,91
31 25.6.2017 04:00 10 0 100 20,81
32 25.6.2017 03:30 10 0 100 20,9
33 25.6.2017 03:00 10 0 100 21,19
34 25.6.2017 02:30 10 0 100 21,42
35 25.6.2017 02:00 10 0 100 21,78
36 25.6.2017 01:30 10 0 100 21,93
37 25.6.2017 01:00 10 0 100 22,03
38 25.6.2017 00:30 10 0 100 22,2
39 25.6.2017 00:00 9 0 100 22,3
40 24.6.2017 23:30 8 0 99,5 22,77
41 24.6.2017 23:00 2 0 88,55 23,69
42 24.6.2017 22:30 3 0 88,48 23,64
43 24.6.2017 22:00 3 0 91,07 23,49
44 24.6.2017 21:30 3 0 92,17 23,65
© 2011 Ministrstvo za kmetijstvo, gozdarstvo in prehrano. Vse pravice pridržane.